Time;durP1;ratioP1;P1;durP2;ratioP2;P2;SDS_P1;SDS_P2;PMS_P1;PMS_P2;Temp;Humidity;BMP_temperature;BMP_pressure;BME280_temperature;BME280_humidity;BME280_pressure;Samples;Min_cycle;Max_cycle;Signal;HPM_P1;HPM_P2
2021/12/11 00:02:10;;;;;;;0.95;0.95;;;4.20;99.90;;;;;;5088645;28;20165;-65
2021/12/11 00:04:39;;;;;;;0.98;0.98;;;4.30;99.90;;;;;;5088961;28;20192;-67
2021/12/11 00:07:12;;;;;;;0.65;0.65;;;4.30;99.90;;;;;;5088427;28;20156;-64
2021/12/11 00:09:43;;;;;;;1.48;1.40;;;4.30;99.90;;;;;;5088813;28;20168;-63
2021/12/11 00:12:25;;;;;;;1.77;1.67;;;4.30;99.90;;;;;;5088564;28;20200;-64
2021/12/11 00:14:56;;;;;;;1.00;1.00;;;4.30;99.90;;;;;;5088457;28;20185;-65
2021/12/11 00:17:26;;;;;;;2.58;1.20;;;4.30;99.90;;;;;;5088165;28;20175;-67
2021/12/11 00:19:52;;;;;;;0.60;0.60;;;4.30;99.90;;;;;;5070882;28;20168;-64
2021/12/11 00:22:21;;;;;;;1.20;0.80;;;4.30;99.90;;;;;;5088305;28;20278;-67
2021/12/11 00:24:47;;;;;;;1.20;1.10;;;4.30;99.90;;;;;;5088212;28;20240;-65
2021/12/11 00:27:23;;;;;;;1.52;1.45;;;4.40;99.90;;;;;;5087870;28;20156;-66
2021/12/11 00:29:50;;;;;;;0.88;0.88;;;4.40;99.90;;;;;;5088062;28;20188;-66
2021/12/11 00:32:27;;;;;;;1.00;1.00;;;4.40;99.90;;;;;;5079233;28;20240;-69
2021/12/11 00:34:59;;;;;;;0.60;0.60;;;4.40;99.90;;;;;;5068170;28;20177;-64
2021/12/11 00:37:26;;;;;;;1.13;1.13;;;4.40;99.90;;;;;;5067888;28;20162;-66
2021/12/11 00:40:13;;;;;;;0.60;0.60;;;4.20;99.90;;;;;;5068063;28;20174;-66
2021/12/11 00:42:45;;;;;;;0.82;0.82;;;3.90;99.90;;;;;;5067821;28;20244;-66
2021/12/11 00:45:19;;;;;;;0.80;0.80;;;3.90;99.90;;;;;;5067977;28;20176;-66
2021/12/11 00:48:06;;;;;;;1.02;0.93;;;3.70;99.90;;;;;;5067633;28;20350;-68
2021/12/11 00:50:38;;;;;;;1.70;1.60;;;3.60;99.90;;;;;;5067734;28;20425;-66
2021/12/11 00:53:13;;;;;;;1.15;1.15;;;3.50;99.90;;;;;;5067677;28;20216;-66
2021/12/11 00:55:45;;;;;;;1.00;0.90;;;3.50;99.90;;;;;;5067074;28;20172;-67
2021/12/11 00:58:24;;;;;;;0.73;0.73;;;3.50;99.90;;;;;;5067376;28;20184;-66
2021/12/11 01:00:58;;;;;;;1.08;1.02;;;3.40;99.90;;;;;;5067614;28;20211;-65
2021/12/11 01:03:34;;;;;;;1.10;1.10;;;3.30;99.90;;;;;;5067420;28;20257;-66
2021/12/11 01:06:06;;;;;;;1.45;1.13;;;3.30;99.90;;;;;;5067718;28;20161;-69
2021/12/11 01:08:40;;;;;;;0.75;0.75;;;3.30;99.90;;;;;;5049761;28;20184;-67
2021/12/11 01:11:18;;;;;;;0.98;0.98;;;3.30;99.90;;;;;;5067220;28;20209;-66
2021/12/11 01:14:20;;;;;;;0.50;0.50;;;3.20;99.90;;;;;;5067247;28;20192;-65
2021/12/11 01:17:01;;;;;;;0.50;0.50;;;3.20;99.90;;;;;;5064028;28;20176;-65
2021/12/11 01:19:35;;;;;;;0.70;0.70;;;3.10;99.90;;;;;;5067334;28;20176;-65
2021/12/11 01:22:09;;;;;;;1.00;0.52;;;3.10;99.90;;;;;;5049703;28;20381;-66
2021/12/11 01:24:42;;;;;;;0.80;0.80;;;3.00;99.90;;;;;;5067179;28;20244;-66
2021/12/11 01:27:10;;;;;;;0.73;0.65;;;3.00;99.90;;;;;;5066885;28;20177;-64
2021/12/11 01:29:36;;;;;;;0.60;0.55;;;3.00;99.90;;;;;;5067138;28;20177;-65
2021/12/11 01:32:03;;;;;;;0.40;0.40;;;3.00;99.90;;;;;;5073988;28;20483;-65
2021/12/11 01:34:29;;;;;;;0.90;0.90;;;3.00;99.90;;;;;;5086791;28;20451;-64
2021/12/11 01:36:56;;;;;;;1.15;0.95;;;3.00;99.90;;;;;;5086974;28;20175;-66
2021/12/11 01:39:28;;;;;;;0.63;0.63;;;3.00;99.90;;;;;;5087207;28;20226;-64
2021/12/11 01:41:55;;;;;;;0.75;0.63;;;3.00;99.90;;;;;;5086995;28;20165;-65
2021/12/11 01:44:29;;;;;;;0.70;0.70;;;3.00;99.90;;;;;;5087031;28;20212;-67
2021/12/11 01:47:04;;;;;;;0.50;0.45;;;3.00;99.90;;;;;;5086757;28;20205;-65
2021/12/11 01:49:31;;;;;;;0.50;0.50;;;3.00;99.90;;;;;;5086840;28;20157;-64
2021/12/11 01:52:02;;;;;;;1.00;1.00;;;3.00;99.90;;;;;;5086832;28;20205;-66
2021/12/11 01:54:43;;;;;;;0.32;0.32;;;3.00;99.90;;;;;;5086728;28;20233;-66
2021/12/11 01:57:20;;;;;;;1.10;0.80;;;3.00;99.90;;;;;;5068836;28;20240;-66
2021/12/11 01:59:52;;;;;;;0.65;0.65;;;3.10;99.90;;;;;;5069227;28;20188;-63
2021/12/11 02:02:30;;;;;;;0.40;0.40;;;3.00;99.90;;;;;;5086935;28;20187;-67
2021/12/11 02:04:56;;;;;;;2.67;2.47;;;3.00;99.90;;;;;;5086921;28;20207;-65
2021/12/11 02:07:31;;;;;;;1.58;1.00;;;3.00;99.90;;;;;;5090697;28;20164;-66
2021/12/11 02:10:00;;;;;;;1.05;1.02;;;3.00;99.90;;;;;;5090966;28;20231;-64
2021/12/11 02:12:38;;;;;;;0.50;0.50;;;3.00;99.90;;;;;;5090977;28;20180;-65
2021/12/11 02:15:09;;;;;;;0.95;0.63;;;3.00;99.90;;;;;;5090818;28;20172;-65
2021/12/11 02:17:47;;;;;;;1.48;1.38;;;3.00;99.90;;;;;;5090628;28;20165;-65
2021/12/11 02:20:19;;;;;;;0.50;0.50;;;3.00;99.90;;;;;;5090677;27;20175;-66
2021/12/11 02:22:47;;;;;;;0.65;0.65;;;3.00;99.90;;;;;;5090763;28;20171;-64
2021/12/11 02:25:22;;;;;;;0.73;0.73;;;3.00;99.90;;;;;;5090643;28;20207;-66
2021/12/11 02:27:57;;;;;;;0.50;0.50;;;3.00;99.90;;;;;;5090422;28;20179;-67
2021/12/11 02:30:31;;;;;;;0.85;0.85;;;3.00;99.90;;;;;;5090394;28;20308;-65
2021/12/11 02:33:03;;;;;;;0.70;0.70;;;3.00;99.90;;;;;;5075741;28;20440;-65
2021/12/11 02:35:57;;;;;;;0.60;0.60;;;3.00;99.90;;;;;;5070422;28;20165;-66
2021/12/11 02:38:36;;;;;;;1.13;1.13;;;3.00;99.90;;;;;;5068300;28;20244;-65
2021/12/11 02:41:15;;;;;;;1.27;1.20;;;3.00;99.90;;;;;;5070161;28;20219;-65
2021/12/11 02:44:06;;;;;;;0.80;0.80;;;3.10;99.90;;;;;;5070391;28;20282;-66
2021/12/11 02:46:49;;;;;;;0.80;0.80;;;3.10;99.90;;;;;;5052421;28;20248;-67
2021/12/11 02:49:26;;;;;;;2.05;1.20;;;3.10;99.90;;;;;;5070054;28;20426;-66
2021/12/11 02:52:17;;;;;;;2.03;0.77;;;3.10;99.90;;;;;;5070010;28;20204;-65
2021/12/11 02:54:48;;;;;;;0.80;0.80;;;3.10;99.90;;;;;;5069870;28;20181;-66
2021/12/11 02:57:22;;;;;;;1.02;1.02;;;3.10;99.90;;;;;;5069743;28;20158;-66
2021/12/11 02:59:48;;;;;;;1.42;1.33;;;3.10;99.90;;;;;;5069951;28;20378;-66
2021/12/11 03:02:21;;;;;;;1.25;1.15;;;3.10;99.90;;;;;;5069867;28;20237;-66
2021/12/11 03:04:54;;;;;;;0.70;0.70;;;3.10;99.90;;;;;;5069958;28;20181;-66
2021/12/11 03:07:36;;;;;;;2.08;1.88;;;3.10;99.90;;;;;;5069521;28;20177;-67
2021/12/11 03:10:09;;;;;;;0.65;0.65;;;3.10;99.90;;;;;;5069775;28;20180;-66
2021/12/11 03:12:36;;;;;;;1.50;1.50;;;3.20;99.90;;;;;;5069818;28;20165;-66
2021/12/11 03:15:03;;;;;;;1.42;1.33;;;3.20;99.90;;;;;;5069631;28;20181;-66
2021/12/11 03:17:29;;;;;;;1.25;1.20;;;3.20;99.90;;;;;;5068775;28;20217;-67
2021/12/11 03:19:55;;;;;;;0.90;0.90;;;3.20;99.90;;;;;;5069672;28;20280;-65
2021/12/11 03:22:27;;;;;;;1.40;1.30;;;3.20;99.90;;;;;;5069616;28;20401;-67
2021/12/11 03:24:53;;;;;;;1.25;0.90;;;3.20;99.90;;;;;;5069462;28;20200;-66
2021/12/11 03:27:19;;;;;;;1.80;1.70;;;3.20;99.90;;;;;;5069436;28;20189;-67
2021/12/11 03:29:44;;;;;;;1.33;1.23;;;3.20;99.90;;;;;;5069568;28;20609;-66
2021/12/11 03:32:12;;;;;;;2.00;1.60;;;3.20;99.90;;;;;;5077439;28;20196;-67
2021/12/11 03:34:40;;;;;;;1.20;1.20;;;3.20;99.90;;;;;;5089177;28;20263;-64
2021/12/11 03:37:08;;;;;;;1.48;1.38;;;3.20;99.90;;;;;;5088952;28;20184;-65
2021/12/11 03:39:38;;;;;;;2.33;1.92;;;3.20;99.90;;;;;;5089613;28;20168;-66
2021/12/11 03:42:13;;;;;;;1.00;1.00;;;3.20;99.90;;;;;;5089319;28;20199;-67
2021/12/11 03:44:40;;;;;;;1.45;1.35;;;3.20;99.90;;;;;;5089284;28;20237;-66
2021/12/11 03:47:16;;;;;;;1.73;1.63;;;3.20;99.90;;;;;;5088897;28;20265;-67
2021/12/11 03:49:42;;;;;;;1.13;1.10;;;3.10;99.90;;;;;;5088977;28;20180;-66
2021/12/11 03:52:09;;;;;;;1.43;1.33;;;3.20;99.90;;;;;;5089152;28;20208;-68
2021/12/11 03:54:37;;;;;;;1.65;1.55;;;3.10;99.90;;;;;;5088932;28;20679;-65
2021/12/11 03:57:06;;;;;;;1.42;1.33;;;3.10;99.90;;;;;;5088715;28;20161;-65
2021/12/11 03:59:32;;;;;;;1.30;1.20;;;3.20;99.90;;;;;;5088781;28;20165;-67
2021/12/11 04:02:03;;;;;;;1.77;1.67;;;3.20;99.90;;;;;;5088971;28;20184;-65
2021/12/11 04:04:44;;;;;;;1.10;1.10;;;3.20;99.90;;;;;;5088678;28;20417;-66
2021/12/11 04:07:14;;;;;;;2.08;1.95;;;3.20;99.90;;;;;;5088611;28;20243;-67
2021/12/11 04:09:40;;;;;;;1.25;1.05;;;3.20;99.90;;;;;;5071045;28;20165;-66
2021/12/11 04:12:08;;;;;;;1.75;1.33;;;3.20;99.90;;;;;;5088603;28;20209;-65
2021/12/11 04:14:37;;;;;;;1.35;1.35;;;3.20;99.90;;;;;;5088563;28;20184;-66
2021/12/11 04:17:05;;;;;;;2.55;1.55;;;3.50;99.90;;;;;;5088542;28;20179;-68
2021/12/11 04:19:32;;;;;;;2.17;2.08;;;3.20;99.90;;;;;;5088662;28;20165;-68
2021/12/11 04:21:58;;;;;;;1.77;1.67;;;3.20;99.90;;;;;;5088409;28;20226;-68
2021/12/11 04:24:27;;;;;;;3.15;1.83;;;3.30;99.90;;;;;;5088403;28;20230;-68
2021/12/11 04:26:56;;;;;;;2.28;2.13;;;3.30;99.90;;;;;;5088094;28;20165;-67
2021/12/11 04:29:22;;;;;;;2.15;2.08;;;3.20;99.90;;;;;;5087395;28;20218;-68
2021/12/11 04:31:49;;;;;;;2.55;2.28;;;3.20;99.90;;;;;;5083075;28;20189;-67
2021/12/11 04:34:18;;;;;;;2.03;1.90;;;3.20;99.90;;;;;;5068194;28;20185;-65
2021/12/11 04:36:49;;;;;;;2.95;2.67;;;3.20;99.90;;;;;;5067974;28;20165;-66
2021/12/11 04:39:18;;;;;;;3.03;2.83;;;3.20;99.90;;;;;;5051049;28;20169;-65
2021/12/11 04:41:53;;;;;;;2.42;2.22;;;3.30;99.90;;;;;;5067982;28;20161;-64
2021/12/11 04:44:28;;;;;;;2.05;1.95;;;3.30;99.90;;;;;;5067925;28;20220;-65
2021/12/11 04:46:54;;;;;;;2.85;2.65;;;3.30;99.90;;;;;;5067324;28;20240;-65
2021/12/11 04:49:33;;;;;;;2.00;1.90;;;3.30;99.90;;;;;;5067714;28;20342;-66
2021/12/11 04:52:08;;;;;;;2.45;1.90;;;3.30;99.90;;;;;;5067498;28;20228;-66
2021/12/11 04:54:53;;;;;;;2.35;2.00;;;3.30;99.90;;;;;;5067582;28;20184;-66
2021/12/11 05:00:18;;;;;;;2.35;2.25;;;3.30;99.90;;;;;;5067562;28;20280;-64
2021/12/11 05:03:51;;;;;;;3.05;2.83;;;3.30;99.90;;;;;;5067272;28;20185;-65
2021/12/11 05:11:01;;;;;;;3.50;3.20;;;3.40;99.90;;;;;;5067343;28;20234;-66
2021/12/11 05:13:28;;;;;;;3.47;3.20;;;3.40;99.90;;;;;;5067276;28;20244;-65
2021/12/11 05:15:56;;;;;;;6.13;2.75;;;3.30;99.90;;;;;;5067282;28;20162;-65
2021/12/11 05:18:26;;;;;;;6.72;3.95;;;3.30;99.90;;;;;;5067047;28;20200;-65
2021/12/11 05:20:56;;;;;;;4.05;3.75;;;3.30;99.90;;;;;;5067237;28;20323;-66
2021/12/11 05:23:22;;;;;;;4.22;3.10;;;3.30;99.90;;;;;;5066937;28;20196;-65
2021/12/11 05:25:48;;;;;;;2.72;2.53;;;3.30;99.90;;;;;;5067087;28;20168;-65
2021/12/11 05:28:14;;;;;;;6.93;2.93;;;3.40;99.90;;;;;;5067013;28;20174;-65
2021/12/11 05:30:45;;;;;;;3.85;3.55;;;3.40;99.90;;;;;;5066975;28;20425;-67
2021/12/11 05:33:12;;;;;;;5.40;2.83;;;3.40;99.90;;;;;;5083600;28;20308;-65
2021/12/11 05:35:39;;;;;;;3.38;3.08;;;3.40;99.90;;;;;;5087074;28;20281;-65
2021/12/11 05:38:07;;;;;;;4.35;3.25;;;3.40;99.90;;;;;;5086701;28;20191;-65
2021/12/11 05:40:35;;;;;;;4.43;3.25;;;3.40;99.90;;;;;;5086749;28;20311;-66
2021/12/11 05:43:01;;;;;;;5.00;3.70;;;3.40;99.90;;;;;;5087090;28;20196;-64
2021/12/11 05:45:27;;;;;;;4.38;3.40;;;3.40;99.90;;;;;;5087383;28;20168;-65
2021/12/11 05:47:54;;;;;;;3.37;3.10;;;3.40;99.90;;;;;;5086977;28;20218;-65
2021/12/11 05:50:35;;;;;;;3.28;2.50;;;3.40;99.90;;;;;;5087207;28;20245;-66
2021/12/11 05:53:02;;;;;;;4.43;3.90;;;3.40;99.90;;;;;;5086964;28;20401;-65
2021/12/11 05:55:30;;;;;;;3.28;3.08;;;3.40;99.90;;;;;;5069338;28;20425;-67
2021/12/11 05:57:58;;;;;;;4.20;3.63;;;3.40;99.90;;;;;;5086505;28;20196;-65
2021/12/11 06:00:34;;;;;;;4.10;3.03;;;3.30;99.90;;;;;;5086981;28;20183;-66
2021/12/11 06:03:02;;;;;;;2.13;2.03;;;3.30;99.90;;;;;;5086553;28;20200;-65
2021/12/11 06:05:28;;;;;;;3.45;3.00;;;3.30;99.90;;;;;;5087013;28;20195;-66
2021/12/11 06:07:54;;;;;;;3.60;3.40;;;3.30;99.90;;;;;;5086625;28;20161;-65
2021/12/11 06:10:22;;;;;;;5.13;4.63;;;3.30;99.90;;;;;;5086745;28;20406;-65
2021/12/11 06:12:51;;;;;;;5.15;2.88;;;3.30;99.90;;;;;;5086643;28;20280;-66
2021/12/11 06:15:17;;;;;;;3.50;3.20;;;3.30;99.90;;;;;;5086633;28;20176;-66
2021/12/11 06:17:44;;;;;;;5.77;4.43;;;3.30;99.90;;;;;;5086213;28;20267;-66
2021/12/11 06:20:13;;;;;;;3.25;2.55;;;3.30;99.90;;;;;;5086684;28;20619;-65
2021/12/11 06:22:39;;;;;;;3.60;3.30;;;3.30;99.90;;;;;;5086654;28;20160;-65
2021/12/11 06:25:29;;;;;;;4.60;3.28;;;3.30;99.90;;;;;;5086568;28;20200;-66
2021/12/11 06:27:55;;;;;;;7.43;3.15;;;3.20;99.90;;;;;;5074063;28;20184;-66
2021/12/11 06:30:22;;;;;;;3.37;3.17;;;3.20;99.90;;;;;;5086406;28;20176;-65
2021/12/11 06:32:50;;;;;;;5.35;4.57;;;3.20;99.90;;;;;;5073118;28;20174;-65
2021/12/11 06:35:19;;;;;;;4.22;3.58;;;3.20;99.90;;;;;;5066539;28;20312;-66
2021/12/11 06:37:45;;;;;;;3.17;2.90;;;3.30;99.90;;;;;;5048638;28;20186;-65
2021/12/11 06:40:11;;;;;;;4.27;3.87;;;3.30;99.90;;;;;;5066363;28;20313;-65
2021/12/11 06:42:37;;;;;;;4.68;2.53;;;3.30;99.90;;;;;;5066166;28;20465;-66
2021/12/11 06:45:04;;;;;;;3.93;3.60;;;3.30;99.90;;;;;;5066159;28;20316;-66
2021/12/11 06:47:30;;;;;;;3.72;3.42;;;3.20;99.90;;;;;;5065823;28;20186;-66
2021/12/11 06:49:56;;;;;;;4.05;3.58;;;3.20;99.90;;;;;;5066494;28;20170;-65
2021/12/11 06:52:23;;;;;;;5.60;4.00;;;3.20;99.90;;;;;;5067040;28;20251;-66
2021/12/11 06:54:50;;;;;;;5.65;4.75;;;3.20;99.90;;;;;;5070433;28;20208;-66
2021/12/11 06:57:17;;;;;;;6.07;5.43;;;3.20;99.90;;;;;;5069542;28;20243;-66
2021/12/11 06:59:44;;;;;;;4.45;4.05;;;3.20;99.90;;;;;;5070106;28;20213;-63
2021/12/11 07:02:10;;;;;;;4.82;4.43;;;3.30;99.90;;;;;;5069983;28;20169;-68
2021/12/11 07:04:36;;;;;;;12.45;6.43;;;3.20;99.90;;;;;;5069603;28;20312;-65
2021/12/11 07:07:03;;;;;;;5.97;3.72;;;3.20;99.90;;;;;;5068929;28;20325;-65
2021/12/11 07:09:29;;;;;;;3.75;3.53;;;3.20;99.90;;;;;;5069522;28;20212;-65
2021/12/11 07:11:57;;;;;;;6.10;5.00;;;3.30;99.90;;;;;;5069547;28;20208;-64
2021/12/11 07:14:26;;;;;;;3.83;3.38;;;3.30;99.90;;;;;;5069599;28;20452;-65
2021/12/11 07:16:52;;;;;;;5.03;4.47;;;3.30;99.90;;;;;;5069275;28;20172;-66
2021/12/11 07:19:18;;;;;;;4.37;3.97;;;3.30;99.90;;;;;;5069561;28;20233;-66
2021/12/11 07:21:44;;;;;;;4.05;3.72;;;3.20;99.90;;;;;;5069488;28;20265;-66
2021/12/11 07:24:14;;;;;;;5.32;4.63;;;3.30;99.90;;;;;;5085747;28;20234;-64
2021/12/11 07:26:40;;;;;;;4.20;3.85;;;3.30;99.90;;;;;;5077594;28;20312;-68
2021/12/11 07:29:14;;;;;;;5.60;4.87;;;3.30;99.90;;;;;;5069868;28;20189;-66
2021/12/11 07:31:42;;;;;;;5.07;4.57;;;3.30;99.90;;;;;;5074138;28;20482;-66
2021/12/11 07:34:09;;;;;;;6.68;5.72;;;3.30;99.90;;;;;;5082217;28;20193;-69
2021/12/11 07:36:36;;;;;;;5.05;4.63;;;3.30;99.90;;;;;;5077761;28;20384;-68
2021/12/11 07:39:07;;;;;;;7.78;4.93;;;3.30;99.90;;;;;;5079650;28;20180;-69
2021/12/11 07:41:32;;;;;;;7.78;6.93;;;3.30;99.90;;;;;;5079026;28;20162;-70
2021/12/11 07:43:58;;;;;;;4.30;3.13;;;3.30;99.90;;;;;;5077368;28;20216;-66
2021/12/11 07:46:27;;;;;;;5.00;4.50;;;3.30;99.90;;;;;;5079222;28;20467;-65
2021/12/11 07:48:53;;;;;;;6.53;5.03;;;3.40;99.90;;;;;;5078783;28;20165;-67
2021/12/11 07:51:20;;;;;;;10.25;6.50;;;3.40;99.90;;;;;;5078894;28;20196;-66
2021/12/11 07:53:46;;;;;;;7.32;5.32;;;3.40;99.90;;;;;;5071204;28;20200;-65
2021/12/11 07:56:12;;;;;;;6.20;5.23;;;3.40;99.90;;;;;;5068715;28;20381;-66
2021/12/11 07:58:38;;;;;;;7.50;5.40;;;3.40;99.90;;;;;;5068571;28;20635;-65
2021/12/11 08:01:07;;;;;;;7.60;6.13;;;3.40;99.90;;;;;;5068565;28;20434;-65
2021/12/11 08:03:33;;;;;;;4.97;4.47;;;3.40;99.90;;;;;;5068209;28;20208;-67
2021/12/11 08:05:59;;;;;;;7.70;4.40;;;3.40;99.90;;;;;;5068380;28;20161;-65
2021/12/11 08:08:26;;;;;;;6.40;5.10;;;3.50;99.90;;;;;;5068407;28;20656;-66
2021/12/11 08:11:00;;;;;;;5.15;4.65;;;3.50;99.90;;;;;;5068193;28;20604;-66
2021/12/11 08:13:26;;;;;;;3.45;3.15;;;3.50;99.90;;;;;;5068461;28;20208;-64
2021/12/11 08:15:55;;;;;;;7.05;4.47;;;3.50;99.90;;;;;;5068512;28;20169;-66
2021/12/11 08:18:20;;;;;;;6.53;5.20;;;3.50;99.90;;;;;;5068061;28;20164;-66
2021/12/11 08:20:46;;;;;;;8.23;7.43;;;3.50;99.90;;;;;;5068212;28;20169;-65
2021/12/11 08:23:14;;;;;;;7.67;4.90;;;3.50;99.90;;;;;;5068101;28;20423;-64
2021/12/11 08:25:41;;;;;;;7.20;6.50;;;3.50;99.90;;;;;;5067414;28;20411;-65
2021/12/11 08:28:10;;;;;;;5.88;5.00;;;3.50;99.90;;;;;;5066492;28;20169;-67
2021/12/11 08:30:38;;;;;;;8.35;4.45;;;3.50;99.90;;;;;;5067738;28;20205;-67
2021/12/11 08:33:03;;;;;;;4.93;4.43;;;3.50;99.90;;;;;;5049382;28;20223;-65
2021/12/11 08:35:30;;;;;;;7.23;6.30;;;3.50;99.90;;;;;;5067599;28;20161;-66
2021/12/11 08:37:56;;;;;;;5.97;5.32;;;3.50;99.90;;;;;;5067385;28;20227;-63
2021/12/11 08:40:26;;;;;;;9.93;4.40;;;3.60;99.90;;;;;;5067864;28;20382;-65
2021/12/11 08:42:53;;;;;;;8.70;6.45;;;3.60;99.90;;;;;;5067835;28;20188;-65
2021/12/11 08:45:26;;;;;;;6.22;5.63;;;3.60;99.90;;;;;;5067801;28;20237;-64
2021/12/11 08:47:57;;;;;;;6.30;5.70;;;3.60;99.90;;;;;;5067583;28;20158;-65
2021/12/11 08:50:26;;;;;;;6.63;6.05;;;3.70;99.90;;;;;;5067695;28;20177;-63
2021/12/11 08:52:54;;;;;;;5.90;5.18;;;3.70;99.90;;;;;;5067307;28;20375;-63
2021/12/11 08:55:31;;;;;;;5.72;4.82;;;3.70;99.90;;;;;;5067725;28;20278;-66
2021/12/11 08:57:57;;;;;;;10.18;7.30;;;3.80;99.90;;;;;;5050619;28;20161;-67
2021/12/11 09:00:33;;;;;;;7.47;6.45;;;3.80;99.90;;;;;;5067897;28;20185;-71
2021/12/11 09:03:05;;;;;;;5.45;4.88;;;3.80;99.90;;;;;;5067193;28;20224;-72
2021/12/11 09:05:39;;;;;;;7.30;6.55;;;3.80;99.90;;;;;;5067561;28;20180;-72
2021/12/11 09:08:12;;;;;;;12.05;7.70;;;3.80;99.90;;;;;;5067045;28;20246;-66
2021/12/11 09:10:56;;;;;;;9.40;4.63;;;3.80;99.90;;;;;;5067319;28;20260;-70
2021/12/11 09:13:36;;;;;;;15.23;7.82;;;3.80;99.90;;;;;;5067149;28;20196;-74
2021/12/11 09:16:15;;;;;;;7.95;5.47;;;3.80;99.90;;;;;;5066745;28;20194;-66
2021/12/11 09:18:53;;;;;;;7.47;5.50;;;3.80;99.90;;;;;;5067260;28;20167;-69
2021/12/11 09:21:27;;;;;;;10.98;7.22;;;3.90;99.90;;;;;;5067534;28;20276;-65
2021/12/11 09:24:11;;;;;;;10.02;6.60;;;3.90;99.90;;;;;;5067173;28;20187;-66
2021/12/11 09:26:50;;;;;;;8.45;6.18;;;3.80;99.90;;;;;;5066896;28;20169;-67
2021/12/11 09:29:25;;;;;;;18.50;5.88;;;3.90;99.90;;;;;;5033046;28;20286;-64
2021/12/11 09:32:36;;;;;;;11.50;6.80;;;3.90;99.90;;;;;;5072437;28;20261;-66
2021/12/11 09:35:12;;;;;;;8.60;6.55;;;4.00;99.90;;;;;;5081944;28;20300;-68
2021/12/11 09:37:40;;;;;;;6.93;6.00;;;4.00;99.90;;;;;;5086692;28;20265;-71
2021/12/11 09:40:35;;;;;;;6.25;5.65;;;4.10;99.90;;;;;;5087093;28;20255;-69
2021/12/11 09:43:01;;;;;;;7.03;5.78;;;4.10;99.90;;;;;;5070628;28;20188;-67
2021/12/11 09:45:40;;;;;;;7.72;6.55;;;4.10;99.90;;;;;;5086885;28;20244;-65
2021/12/11 09:48:17;;;;;;;5.65;5.05;;;4.20;99.90;;;;;;5069024;28;20195;-67
2021/12/11 09:50:56;;;;;;;8.88;5.70;;;4.20;99.90;;;;;;5086951;28;20251;-65
2021/12/11 09:53:28;;;;;;;7.45;5.60;;;4.30;99.90;;;;;;5087089;28;20197;-64
2021/12/11 09:55:55;;;;;;;8.48;7.57;;;4.30;99.90;;;;;;5087019;28;20168;-64
2021/12/11 09:58:26;;;;;;;9.05;5.75;;;4.40;99.90;;;;;;5086606;28;20376;-64
2021/12/11 10:00:55;;;;;;;11.25;6.25;;;4.50;99.90;;;;;;5086778;28;20165;-64
2021/12/11 10:03:24;;;;;;;8.80;6.18;;;4.50;99.90;;;;;;5086599;28;20203;-65
2021/12/11 10:06:11;;;;;;;9.30;5.53;;;4.60;99.90;;;;;;5086367;28;20423;-66
2021/12/11 10:08:40;;;;;;;6.22;5.72;;;4.70;99.90;;;;;;5086327;28;20165;-66
2021/12/11 10:11:24;;;;;;;8.15;5.82;;;4.80;99.90;;;;;;5086359;28;20245;-64
2021/12/11 10:13:59;;;;;;;6.45;5.00;;;4.90;99.90;;;;;;5086586;28;20177;-65
2021/12/11 10:16:29;;;;;;;7.53;5.05;;;5.00;99.90;;;;;;5086328;28;20239;-66
2021/12/11 10:18:55;;;;;;;8.70;5.82;;;5.10;99.90;;;;;;5085326;28;20166;-66
2021/12/11 10:21:28;;;;;;;9.80;5.53;;;5.20;99.90;;;;;;5084791;28;20170;-63
2021/12/11 10:23:57;;;;;;;9.25;4.80;;;5.20;99.90;;;;;;5084755;28;20174;-65
2021/12/11 10:26:25;;;;;;;8.88;5.38;;;5.30;99.90;;;;;;5066946;28;20198;-64
2021/12/11 10:28:56;;;;;;;17.60;6.13;;;5.30;99.90;;;;;;5088114;28;20373;-65
2021/12/11 10:31:36;;;;;;;8.63;4.57;;;5.40;99.90;;;;;;5086912;28;20217;-65
2021/12/11 10:34:06;;;;;;;6.72;5.07;;;5.50;99.90;;;;;;5069004;28;20191;-65
2021/12/11 10:36:37;;;;;;;4.97;4.50;;;5.50;99.90;;;;;;5070031;28;20281;-64
2021/12/11 10:39:07;;;;;;;6.20;4.35;;;5.50;99.90;;;;;;5069939;28;20219;-64
2021/12/11 10:41:34;;;;;;;5.18;4.78;;;5.60;99.90;;;;;;5070188;28;20162;-64
2021/12/11 10:44:04;;;;;;;5.10;4.63;;;5.50;99.90;;;;;;5069897;28;20216;-64
2021/12/11 10:46:34;;;;;;;7.03;5.38;;;5.60;99.90;;;;;;5069705;28;20167;-64
2021/12/11 10:49:03;;;;;;;6.10;4.85;;;5.50;99.90;;;;;;5069870;28;20483;-65
2021/12/11 10:51:41;;;;;;;5.88;4.40;;;5.50;99.90;;;;;;5069595;28;20476;-64
2021/12/11 10:54:08;;;;;;;5.57;4.72;;;5.50;99.90;;;;;;5069669;28;20238;-64
2021/12/11 10:56:34;;;;;;;4.65;4.25;;;5.60;99.90;;;;;;5069562;28;20229;-64
2021/12/11 10:59:05;;;;;;;6.53;5.93;;;5.60;99.90;;;;;;5069800;28;20447;-64
2021/12/11 11:01:40;;;;;;;5.20;4.00;;;5.50;99.90;;;;;;5069744;28;20418;-64
2021/12/11 11:04:11;;;;;;;3.58;3.00;;;5.50;99.90;;;;;;5069572;28;20244;-64
2021/12/11 11:06:37;;;;;;;5.07;4.13;;;5.50;99.90;;;;;;5069472;28;20342;-64
2021/12/11 11:09:09;;;;;;;4.50;3.75;;;5.50;99.90;;;;;;5069691;28;20268;-63
2021/12/11 11:11:37;;;;;;;5.78;4.30;;;5.50;99.90;;;;;;5069367;28;20215;-63
2021/12/11 11:14:08;;;;;;;3.70;3.30;;;5.50;99.90;;;;;;5069362;28;20238;-65
2021/12/11 11:16:35;;;;;;;3.50;3.20;;;5.50;99.90;;;;;;5069421;28;20217;-64
2021/12/11 11:19:02;;;;;;;4.93;4.07;;;5.60;99.90;;;;;;5069606;28;20330;-63
2021/12/11 11:21:41;;;;;;;4.40;3.58;;;5.70;99.90;;;;;;5069376;28;20290;-64
2021/12/11 11:24:09;;;;;;;3.90;2.80;;;5.60;99.90;;;;;;5069505;28;20197;-63
2021/12/11 11:26:38;;;;;;;3.10;2.90;;;5.70;99.90;;;;;;5069114;28;20191;-63
2021/12/11 11:29:08;;;;;;;3.92;3.55;;;5.80;99.90;;;;;;5069488;28;20172;-62
2021/12/11 11:31:38;;;;;;;4.22;3.83;;;5.80;99.90;;;;;;5072308;28;20230;-63
2021/12/11 11:34:07;;;;;;;3.17;2.90;;;5.80;99.90;;;;;;5089248;28;20203;-64
2021/12/11 11:36:34;;;;;;;4.25;3.85;;;5.80;99.90;;;;;;5088923;28;20571;-63
2021/12/11 11:39:06;;;;;;;4.15;3.58;;;5.90;99.90;;;;;;5088681;28;20165;-64
2021/12/11 11:41:37;;;;;;;6.72;4.60;;;5.90;99.90;;;;;;5089458;28;20179;-64
2021/12/11 11:44:04;;;;;;;3.30;3.00;;;5.90;99.90;;;;;;5089140;28;20199;-65
2021/12/11 11:46:30;;;;;;;4.07;3.67;;;6.10;99.90;;;;;;5088896;28;20164;-64
2021/12/11 11:48:59;;;;;;;6.55;3.35;;;6.10;99.90;;;;;;5089025;27;20222;-63
2021/12/11 11:51:35;;;;;;;4.97;4.47;;;6.20;99.90;;;;;;5089072;28;21170;-64
2021/12/11 11:54:03;;;;;;;4.57;3.95;;;6.30;99.90;;;;;;5088970;28;20184;-63
2021/12/11 11:56:33;;;;;;;4.63;4.18;;;6.30;99.90;;;;;;5088723;28;20175;-64
2021/12/11 11:58:59;;;;;;;3.08;2.75;;;6.30;99.90;;;;;;5088865;28;20285;-64
2021/12/11 12:01:38;;;;;;;3.30;2.90;;;6.30;99.90;;;;;;5088910;28;20187;-63
2021/12/11 12:04:05;;;;;;;5.20;3.42;;;6.20;99.90;;;;;;5088642;28;20525;-63
2021/12/11 12:06:35;;;;;;;4.20;3.28;;;6.30;99.90;;;;;;5088300;28;20234;-63
2021/12/11 12:09:06;;;;;;;4.60;4.25;;;6.20;99.90;;;;;;5088736;28;20175;-65
2021/12/11 12:11:33;;;;;;;3.40;3.17;;;6.30;99.90;;;;;;5088388;27;20289;-63
2021/12/11 12:14:01;;;;;;;4.32;3.25;;;6.30;99.90;;;;;;5088118;28;20209;-63
2021/12/11 12:16:29;;;;;;;4.70;4.28;;;6.30;99.90;;;;;;5088340;28;20222;-63
2021/12/11 12:18:55;;;;;;;4.80;4.30;;;6.30;99.90;;;;;;5088589;28;20391;-64
2021/12/11 12:21:21;;;;;;;4.33;3.90;;;6.30;99.90;;;;;;5088366;28;20169;-65
2021/12/11 12:23:47;;;;;;;5.97;5.20;;;6.30;99.90;;;;;;5088220;28;20253;-64
2021/12/11 12:26:20;;;;;;;5.18;4.68;;;6.30;99.90;;;;;;5088214;28;20557;-64
2021/12/11 12:28:46;;;;;;;4.38;3.97;;;6.40;99.90;;;;;;5071564;28;20153;-64
2021/12/11 12:31:18;;;;;;;4.13;3.83;;;6.40;99.90;;;;;;5087533;28;20208;-66
2021/12/11 12:33:45;;;;;;;5.80;3.13;;;6.40;99.90;;;;;;5068091;28;20212;-63
2021/12/11 12:36:11;;;;;;;4.68;3.45;;;6.30;99.90;;;;;;5067997;28;20468;-68
2021/12/11 12:38:42;;;;;;;5.63;4.95;;;6.30;99.90;;;;;;5067610;28;20171;-67
2021/12/11 12:41:17;;;;;;;5.82;4.82;;;6.30;99.90;;;;;;5067961;28;20160;-70
2021/12/11 12:46:16;;;;;;;5.22;4.78;;;6.30;99.90;;;;;;5067970;28;20189;-65
2021/12/11 12:48:42;;;;;;;4.35;3.65;;;6.20;99.90;;;;;;5068004;28;20171;-64
2021/12/11 12:51:10;;;;;;;3.90;3.53;;;6.30;99.90;;;;;;5067116;28;20227;-64
2021/12/11 12:53:37;;;;;;;4.30;3.90;;;6.30;99.90;;;;;;5067763;28;20307;-64
2021/12/11 12:56:12;;;;;;;5.47;4.13;;;6.20;99.90;;;;;;5074989;28;20171;-64
2021/12/11 12:58:54;;;;;;;4.50;4.10;;;6.10;99.90;;;;;;5087360;28;20166;-64
2021/12/11 13:01:31;;;;;;;6.20;5.15;;;6.10;99.90;;;;;;5087421;28;20196;-64
2021/12/11 13:04:02;;;;;;;8.05;3.80;;;6.10;99.90;;;;;;5086994;28;20199;-64
2021/12/11 13:06:32;;;;;;;7.43;4.20;;;6.10;99.90;;;;;;5087404;28;20365;-64
2021/12/11 13:09:09;;;;;;;7.93;4.00;;;6.10;99.90;;;;;;5087530;28;20172;-64
2021/12/11 13:11:52;;;;;;;7.40;4.68;;;6.00;99.90;;;;;;5087307;28;20222;-65
2021/12/11 13:14:18;;;;;;;3.17;2.90;;;6.00;99.90;;;;;;5087202;28;20234;-67
2021/12/11 13:16:49;;;;;;;6.03;5.10;;;6.10;99.90;;;;;;5086849;28;20175;-66
2021/12/11 13:19:23;;;;;;;5.65;4.15;;;6.00;99.90;;;;;;5087518;28;20313;-65
2021/12/11 13:21:54;;;;;;;4.10;3.70;;;6.00;99.90;;;;;;5087073;28;20239;-66
2021/12/11 13:24:21;;;;;;;4.10;2.92;;;6.00;99.90;;;;;;5087195;28;20307;-66
2021/12/11 13:26:51;;;;;;;3.67;3.33;;;5.90;99.90;;;;;;5086846;28;20181;-66
2021/12/11 13:29:20;;;;;;;3.72;3.25;;;5.80;99.90;;;;;;5087154;28;20160;-64